首页
METAR-TAF:

METAR-TAF

机场 :

Rolla National Airport

罗拉, 密蘇里州, 美国

纬度: 38-07-55N, 经度: 091-45-55W, 海拔: 350米

当前天气观测

该预报发布于13分钟前的16:53 UTC
风速7节,风向东转东北
温度 6°C
湿度 65%
气压 1023 hPa
能見度: 16.1公里
阴天层高于2000英尺

METAR: KVIH 241653Z AUTO 07007KT 10SM OVC020 06/00 A3022 RMK AO2 SLP237 T00560000 TSNO $

时间: 12:06 (17:06 UTC)


TAF: 丢失

超过4000个机场的气象观测和天气预报(METAR&TAF报告)。

可查询的气象台以黄色和红色小点在地图上表示。

将鼠标移到小点上方,可查看气象台名称。

然后点击查看天气观测和预报。

如需切换地图:点击带黑十字的绿色按钮放大地图;点击带横线的绿色按钮缩小地图;或者点击绿色箭头查看邻近地区的地图。


METAR-TAF: